Terminal Aerodrome Forecast
Issued by NWS Wilmington, OH

Home | Current Version | Previous Version | Text Only | Print | Product List | Glossary On
Versions: 1 2 3 4 5 6 7 8 9 10 11 12 13 14 15 16
000
FTUS41 KILN 272334
TAFILN
TAF
KILN 272334Z 2800/2824 00000KT P6SM SCT060
     FM280800 00000KT 4SM BR SCT250
     FM281000 00000KT 2SM BR SCT250
     FM281300 14005KT P6SM SCT250=

USA.gov is the U.S. government's official web portal to all federal, state and local government web resources and services.